Time;durP1;ratioP1;P1;durP2;ratioP2;P2;SDS_P1;SDS_P2;PMS_P1;PMS_P2;Temp;Humidity;BMP_temperature;BMP_pressure;BME280_temperature;BME280_humidity;BME280_pressure;Samples;Min_cycle;Max_cycle;Signal;HPM_P1;HPM_P2
2021/10/20 00:00:22;;;;;;;10.07;5.07;;;;;;;;;;5051490;28;20013;-82
2021/10/20 00:02:49;;;;;;;6.45;4.82;;;;;;;;;;5053026;28;20051;-80
2021/10/20 00:05:17;;;;;;;6.38;4.53;;;;;;;;;;5053148;28;20093;-82
2021/10/20 00:07:43;;;;;;;8.30;4.80;;;;;;;;;;5050459;28;20081;-81
2021/10/20 00:10:09;;;;;;;8.15;4.70;;;;;;;;;;5041374;28;20021;-82
2021/10/20 00:12:35;;;;;;;10.52;4.82;;;;;;;;;;5043871;28;20044;-81
2021/10/20 00:15:04;;;;;;;8.52;4.72;;;;;;;;;;5039840;28;20364;-81
2021/10/20 00:17:31;;;;;;;8.15;4.35;;;;;;;;;;5039354;28;20037;-81
2021/10/20 00:20:00;;;;;;;6.53;4.10;;;;;;;;;;5040492;28;20036;-82
2021/10/20 00:22:26;;;;;;;9.35;5.60;;;;;;;;;;5078704;22;20040;-82
2021/10/20 00:24:53;;;;;;;7.55;4.60;;;;;;;;;;5057931;28;20029;-82
2021/10/20 00:27:20;;;;;;;8.25;5.10;;;;;;;;;;5058663;28;20063;-83
2021/10/20 00:29:46;;;;;;;8.65;5.25;;;;;;;;;;5057048;28;20021;-82
2021/10/20 00:32:12;;;;;;;6.60;4.68;;;;;;;;;;5043482;28;20033;-82
2021/10/20 00:34:38;;;;;;;9.77;4.63;;;;;;;;;;5051470;28;20034;-83
2021/10/20 00:37:04;;;;;;;8.35;5.32;;;;;;;;;;5048250;28;20036;-83
2021/10/20 00:39:30;;;;;;;9.57;5.38;;;;;;;;;;5033016;28;20079;-83
2021/10/20 00:41:56;;;;;;;7.95;5.15;;;;;;;;;;5049690;28;20038;-82
2021/10/20 00:44:22;;;;;;;7.20;4.68;;;;;;;;;;5053112;28;20059;-83
2021/10/20 00:46:49;;;;;;;7.43;4.50;;;;;;;;;;5053013;28;20107;-83
2021/10/20 00:49:15;;;;;;;6.60;4.18;;;;;;;;;;5052411;28;20460;-83
2021/10/20 00:51:41;;;;;;;9.02;3.80;;;;;;;;;;5051926;28;20029;-83
2021/10/20 00:54:07;;;;;;;8.68;4.45;;;;;;;;;;5052634;28;20397;-83
2021/10/20 00:56:34;;;;;;;10.43;4.40;;;;;;;;;;5058332;28;20028;-82
2021/10/20 00:59:00;;;;;;;7.10;4.10;;;;;;;;;;5055461;28;20029;-83
2021/10/20 01:01:26;;;;;;;7.53;3.75;;;;;;;;;;5059283;28;20429;-80
2021/10/20 01:03:52;;;;;;;9.10;4.72;;;;;;;;;;5062222;28;20032;-81
2021/10/20 01:06:18;;;;;;;5.45;3.95;;;;;;;;;;5055652;28;20141;-80
2021/10/20 01:08:45;;;;;;;8.15;3.85;;;;;;;;;;5056160;28;20112;-81
2021/10/20 01:11:11;;;;;;;6.55;3.60;;;;;;;;;;5056562;28;20021;-81
2021/10/20 01:13:37;;;;;;;9.55;4.57;;;;;;;;;;5056910;28;20124;-81
2021/10/20 01:16:03;;;;;;;6.68;3.97;;;;;;;;;;5056177;28;20017;-82
2021/10/20 01:18:29;;;;;;;4.53;3.78;;;;;;;;;;5057417;28;20037;-82
2021/10/20 01:20:58;;;;;;;5.70;3.70;;;;;;;;;;5057411;28;20470;-82
2021/10/20 01:23:24;;;;;;;5.22;3.88;;;;;;;;;;5057267;28;20397;-82
2021/10/20 01:25:50;;;;;;;10.27;4.20;;;;;;;;;;5058327;28;20036;-82
2021/10/20 01:28:17;;;;;;;6.97;3.83;;;;;;;;;;5057162;28;20017;-82
2021/10/20 01:30:43;;;;;;;6.43;4.00;;;;;;;;;;5057469;28;20020;-82
2021/10/20 01:33:09;;;;;;;6.80;3.85;;;;;;;;;;5058034;28;20108;-82
2021/10/20 01:35:35;;;;;;;5.38;3.75;;;;;;;;;;5057279;28;20037;-82
2021/10/20 01:38:02;;;;;;;7.93;3.47;;;;;;;;;;5059020;28;20060;-82
2021/10/20 01:40:28;;;;;;;7.13;4.32;;;;;;;;;;5057562;28;20032;-82
2021/10/20 01:42:54;;;;;;;6.32;3.95;;;;;;;;;;5058796;28;20024;-82
2021/10/20 01:45:21;;;;;;;5.78;3.17;;;;;;;;;;5062538;28;20143;-82
2021/10/20 01:47:47;;;;;;;7.75;3.90;;;;;;;;;;5058470;28;20029;-82
2021/10/20 01:50:14;;;;;;;6.20;3.70;;;;;;;;;;5039798;28;20033;-83
2021/10/20 01:52:40;;;;;;;6.78;4.13;;;;;;;;;;5041127;28;20025;-82
2021/10/20 01:55:14;;;;;;;5.43;3.70;;;;;;;;;;5056622;28;20037;-82
2021/10/20 01:57:40;;;;;;;7.53;3.58;;;;;;;;;;5038331;28;20029;-81
2021/10/20 02:00:07;;;;;;;6.70;3.97;;;;;;;;;;5054068;28;20017;-82
2021/10/20 02:02:33;;;;;;;6.13;3.85;;;;;;;;;;5035202;28;20033;-81
2021/10/20 02:04:59;;;;;;;5.88;3.72;;;;;;;;;;5035098;28;20482;-81
2021/10/20 02:07:25;;;;;;;8.10;4.35;;;;;;;;;;5035484;28;20052;-81
2021/10/20 02:09:51;;;;;;;7.35;3.58;;;;;;;;;;5036257;28;20096;-81
2021/10/20 02:12:17;;;;;;;5.47;4.00;;;;;;;;;;5036815;28;20078;-81
2021/10/20 02:14:43;;;;;;;5.72;4.00;;;;;;;;;;5038317;28;20025;-81
2021/10/20 02:17:09;;;;;;;6.05;4.30;;;;;;;;;;5058130;28;20033;-82
2021/10/20 02:19:35;;;;;;;5.30;3.70;;;;;;;;;;5059129;28;20033;-81
2021/10/20 02:22:02;;;;;;;7.85;3.70;;;;;;;;;;5060037;28;20033;-82
2021/10/20 02:24:28;;;;;;;5.30;3.85;;;;;;;;;;5039300;28;20030;-80
2021/10/20 02:26:55;;;;;;;4.97;4.00;;;;;;;;;;5040018;28;20029;-80
2021/10/20 02:29:21;;;;;;;7.38;4.53;;;;;;;;;;5050864;28;20123;-80
2021/10/20 02:31:47;;;;;;;5.75;4.32;;;;;;;;;;5057972;28;20060;-81
2021/10/20 02:34:13;;;;;;;6.15;4.03;;;;;;;;;;5057311;28;20039;-81
2021/10/20 02:36:39;;;;;;;5.57;3.75;;;;;;;;;;5058924;28;20029;-80
2021/10/20 02:39:09;;;;;;;7.70;3.67;;;;;;;;;;5040786;28;20033;-80
2021/10/20 02:41:39;;;;;;;5.32;4.00;;;;;;;;;;5037787;28;20503;-79
2021/10/20 02:44:06;;;;;;;6.07;3.60;;;;;;;;;;5040750;28;20033;-80
2021/10/20 02:46:33;;;;;;;6.03;3.97;;;;;;;;;;5058176;28;20025;-80
2021/10/20 02:48:59;;;;;;;6.55;3.70;;;;;;;;;;5058027;28;20409;-79
2021/10/20 02:51:29;;;;;;;5.45;3.90;;;;;;;;;;5062449;28;20025;-80
2021/10/20 02:53:56;;;;;;;8.23;4.03;;;;;;;;;;5060739;28;20515;-79
2021/10/20 02:56:42;;;;;;;9.60;4.25;;;;;;;;;;5061998;28;20035;-80
2021/10/20 02:59:08;;;;;;;6.93;4.35;;;;;;;;;;5061327;28;20025;-81
2021/10/20 03:01:34;;;;;;;6.55;3.90;;;;;;;;;;5056309;28;20013;-80
2021/10/20 03:04:03;;;;;;;9.07;4.00;;;;;;;;;;5040918;28;20025;-81
2021/10/20 03:06:30;;;;;;;5.90;4.13;;;;;;;;;;5041024;28;20398;-81
2021/10/20 03:08:56;;;;;;;6.80;4.32;;;;;;;;;;5056598;28;20044;-81
2021/10/20 03:11:22;;;;;;;7.28;4.10;;;;;;;;;;5040351;28;20499;-81
2021/10/20 03:13:48;;;;;;;6.65;3.55;;;;;;;;;;5057408;28;20048;-81
2021/10/20 03:16:14;;;;;;;7.55;3.63;;;;;;;;;;5046187;28;20083;-81
2021/10/20 03:18:40;;;;;;;5.85;3.45;;;;;;;;;;5024961;28;20053;-81
2021/10/20 03:21:06;;;;;;;7.72;3.95;;;;;;;;;;5047688;28;20021;-81
2021/10/20 03:23:32;;;;;;;5.25;3.83;;;;;;;;;;5055564;28;20024;-81
2021/10/20 03:26:08;;;;;;;7.15;3.33;;;;;;;;;;5058370;28;20093;-83
2021/10/20 03:28:34;;;;;;;6.80;3.95;;;;;;;;;;5063547;28;20021;-82
2021/10/20 03:31:03;;;;;;;6.97;4.45;;;;;;;;;;5063187;28;20088;-81
2021/10/20 03:33:29;;;;;;;7.82;4.72;;;;;;;;;;5059727;28;20025;-81
2021/10/20 03:35:55;;;;;;;9.52;4.95;;;;;;;;;;5058585;28;20021;-80
2021/10/20 03:38:21;;;;;;;7.45;5.38;;;;;;;;;;5043142;28;20063;-81
2021/10/20 03:40:48;;;;;;;5.55;4.45;;;;;;;;;;5056634;28;20029;-81
2021/10/20 03:43:14;;;;;;;6.72;5.30;;;;;;;;;;5058250;28;20021;-81
2021/10/20 03:45:39;;;;;;;9.57;4.97;;;;;;;;;;5061440;28;20083;-82
2021/10/20 03:48:09;;;;;;;9.00;4.65;;;;;;;;;;5060079;28;20057;-81
2021/10/20 03:50:35;;;;;;;7.57;4.70;;;;;;;;;;5059514;28;20028;-81
2021/10/20 03:53:01;;;;;;;10.43;4.90;;;;;;;;;;5058586;28;20036;-81
2021/10/20 03:55:28;;;;;;;5.10;3.70;;;;;;;;;;5058584;28;20371;-81
2021/10/20 03:57:58;;;;;;;8.20;3.90;;;;;;;;;;5042222;28;20094;-81
2021/10/20 04:00:24;;;;;;;8.38;4.32;;;;;;;;;;5058204;28;20028;-81
2021/10/20 04:02:50;;;;;;;7.80;4.10;;;;;;;;;;5042391;28;20088;-81
2021/10/20 04:05:17;;;;;;;6.45;4.00;;;;;;;;;;5059134;28;20013;-81
2021/10/20 04:07:45;;;;;;;8.77;3.75;;;;;;;;;;5059960;28;20029;-81
2021/10/20 04:10:12;;;;;;;8.18;4.55;;;;;;;;;;5059200;28;20112;-82
2021/10/20 04:12:38;;;;;;;7.45;4.07;;;;;;;;;;5053008;28;20119;-82
2021/10/20 04:15:04;;;;;;;7.47;4.35;;;;;;;;;;5053646;28;20094;-82
2021/10/20 04:17:30;;;;;;;10.10;4.68;;;;;;;;;;5056357;28;20100;-83
2021/10/20 04:19:56;;;;;;;9.25;6.03;;;;;;;;;;5054269;28;20063;-82
2021/10/20 04:22:22;;;;;;;8.32;4.25;;;;;;;;;;5057952;28;20033;-82
2021/10/20 04:24:49;;;;;;;6.53;3.80;;;;;;;;;;5063852;28;20032;-82
2021/10/20 04:27:14;;;;;;;8.95;4.32;;;;;;;;;;5037627;28;20086;-82
2021/10/20 04:29:40;;;;;;;7.63;4.32;;;;;;;;;;5053694;28;20029;-82
2021/10/20 04:32:07;;;;;;;5.68;3.88;;;;;;;;;;5058140;28;20025;-82
2021/10/20 04:34:33;;;;;;;9.65;4.30;;;;;;;;;;5058822;28;20028;-82
2021/10/20 04:36:59;;;;;;;6.18;4.20;;;;;;;;;;5055702;28;20029;-82
2021/10/20 04:39:25;;;;;;;7.35;4.32;;;;;;;;;;5038801;28;20157;-82
2021/10/20 04:41:51;;;;;;;6.18;4.30;;;;;;;;;;5038386;28;20033;-82
2021/10/20 04:44:17;;;;;;;5.93;4.28;;;;;;;;;;5052520;28;20025;-82
2021/10/20 04:46:43;;;;;;;7.53;4.57;;;;;;;;;;5065584;28;20020;-82
2021/10/20 04:49:09;;;;;;;10.13;4.45;;;;;;;;;;5053042;28;20025;-82
2021/10/20 04:51:35;;;;;;;7.78;5.88;;;;;;;;;;5034564;28;20025;-83
2021/10/20 04:54:01;;;;;;;8.57;4.93;;;;;;;;;;5033961;28;20080;-82
2021/10/20 04:56:27;;;;;;;7.68;4.55;;;;;;;;;;5032459;28;20032;-83
2021/10/20 04:58:53;;;;;;;9.70;4.38;;;;;;;;;;5048541;28;20029;-83
2021/10/20 05:01:19;;;;;;;9.73;5.00;;;;;;;;;;5034209;28;20026;-83
2021/10/20 05:03:45;;;;;;;8.68;4.70;;;;;;;;;;5049669;28;20030;-82
2021/10/20 05:06:11;;;;;;;8.98;4.70;;;;;;;;;;5036052;28;20046;-83
2021/10/20 05:08:37;;;;;;;19.10;5.15;;;;;;;;;;5054496;28;20032;-83
2021/10/20 05:11:03;;;;;;;8.73;4.75;;;;;;;;;;5054703;28;20025;-83
2021/10/20 05:13:29;;;;;;;8.23;4.32;;;;;;;;;;5057941;28;20029;-83
2021/10/20 05:15:55;;;;;;;10.43;4.72;;;;;;;;;;5048897;28;20021;-82
2021/10/20 05:18:21;;;;;;;11.27;5.03;;;;;;;;;;5051210;28;20029;-84
2021/10/20 05:20:47;;;;;;;9.25;4.68;;;;;;;;;;5055568;28;20043;-83
2021/10/20 05:23:14;;;;;;;8.65;4.53;;;;;;;;;;5057968;28;20039;-83
2021/10/20 05:25:40;;;;;;;8.30;5.25;;;;;;;;;;5055983;28;20040;-84
2021/10/20 05:28:06;;;;;;;7.22;4.97;;;;;;;;;;5047750;28;20090;-83
2021/10/20 05:30:32;;;;;;;10.68;5.65;;;;;;;;;;5042806;28;20041;-83
2021/10/20 05:32:58;;;;;;;7.70;4.90;;;;;;;;;;5055887;28;20056;-85
2021/10/20 05:35:24;;;;;;;8.88;5.60;;;;;;;;;;5066972;28;20029;-84
2021/10/20 05:37:51;;;;;;;12.77;5.80;;;;;;;;;;5048432;28;20037;-84
2021/10/20 05:40:19;;;;;;;10.40;5.18;;;;;;;;;;5059309;28;20053;-84
2021/10/20 05:42:45;;;;;;;10.63;5.72;;;;;;;;;;5058513;28;20021;-83
2021/10/20 05:45:11;;;;;;;10.32;5.88;;;;;;;;;;5039602;28;20543;-81
2021/10/20 05:47:37;;;;;;;9.40;5.50;;;;;;;;;;5038780;28;20029;-79
2021/10/20 05:50:04;;;;;;;10.63;5.30;;;;;;;;;;5047661;28;20029;-79
2021/10/20 05:52:30;;;;;;;7.63;5.13;;;;;;;;;;5049610;28;20040;-80
2021/10/20 05:54:57;;;;;;;8.52;5.13;;;;;;;;;;5051449;28;20650;-80
2021/10/20 05:57:23;;;;;;;9.65;4.90;;;;;;;;;;5049494;28;20036;-80
2021/10/20 05:59:49;;;;;;;7.18;4.65;;;;;;;;;;5049082;28;20030;-79
2021/10/20 06:02:15;;;;;;;11.05;4.80;;;;;;;;;;5051608;28;20120;-80
2021/10/20 06:04:41;;;;;;;8.13;4.70;;;;;;;;;;5052891;28;20492;-78
2021/10/20 06:07:07;;;;;;;12.80;5.68;;;;;;;;;;5049230;28;20485;-79
2021/10/20 06:09:34;;;;;;;11.88;5.95;;;;;;;;;;5045949;28;20405;-79
2021/10/20 06:12:00;;;;;;;9.07;5.55;;;;;;;;;;5059829;28;20051;-79
2021/10/20 06:14:26;;;;;;;10.43;5.40;;;;;;;;;;5053653;28;20036;-78
2021/10/20 06:16:52;;;;;;;9.82;5.50;;;;;;;;;;5054357;28;20104;-78
2021/10/20 06:19:18;;;;;;;8.38;5.28;;;;;;;;;;5052251;28;20501;-78
2021/10/20 06:21:45;;;;;;;9.00;5.38;;;;;;;;;;5051434;28;20069;-81
2021/10/20 06:24:11;;;;;;;12.00;5.90;;;;;;;;;;5057457;28;20033;-81
2021/10/20 06:26:37;;;;;;;12.82;6.05;;;;;;;;;;5054149;28;20044;-79
2021/10/20 06:29:03;;;;;;;11.18;5.82;;;;;;;;;;5037639;28;20089;-81
2021/10/20 06:31:32;;;;;;;8.50;5.85;;;;;;;;;;5037446;28;20035;-80
2021/10/20 06:33:58;;;;;;;10.40;5.50;;;;;;;;;;5036523;28;20485;-80
2021/10/20 06:36:29;;;;;;;9.15;5.28;;;;;;;;;;5021058;28;20079;-80
2021/10/20 06:38:55;;;;;;;13.27;7.50;;;;;;;;;;5044222;28;20109;-80
2021/10/20 06:41:21;;;;;;;24.48;10.82;;;;;;;;;;5040486;28;20025;-81
2021/10/20 06:43:47;;;;;;;14.82;7.90;;;;;;;;;;5037034;28;20033;-81
2021/10/20 06:46:13;;;;;;;13.25;6.60;;;;;;;;;;5056122;28;20016;-81
2021/10/20 06:48:40;;;;;;;6.97;4.82;;;;;;;;;;5076627;28;20024;-79
2021/10/20 06:51:09;;;;;;;9.32;4.35;;;;;;;;;;5063479;28;20615;-78
2021/10/20 06:53:35;;;;;;;6.85;4.15;;;;;;;;;;5055064;28;20029;-80
2021/10/20 06:56:02;;;;;;;5.85;4.20;;;;;;;;;;5057147;28;20039;-81
2021/10/20 06:58:28;;;;;;;6.53;4.43;;;;;;;;;;5056715;28;20067;-80
2021/10/20 07:00:54;;;;;;;6.05;4.30;;;;;;;;;;5058649;28;20033;-79
2021/10/20 07:03:20;;;;;;;5.35;3.90;;;;;;;;;;5063615;28;20037;-79
2021/10/20 07:05:46;;;;;;;6.53;4.57;;;;;;;;;;5048935;28;20033;-81
2021/10/20 07:08:12;;;;;;;9.63;4.80;;;;;;;;;;5066670;28;20049;-80
2021/10/20 07:10:38;;;;;;;6.13;4.50;;;;;;;;;;5063803;28;20071;-81
2021/10/20 07:13:04;;;;;;;6.55;3.88;;;;;;;;;;5049316;28;20029;-80
2021/10/20 07:15:30;;;;;;;6.95;4.00;;;;;;;;;;5066742;28;20624;-80
2021/10/20 07:17:56;;;;;;;7.43;3.70;;;;;;;;;;5068210;28;20029;-79
2021/10/20 07:20:23;;;;;;;7.55;3.58;;;;;;;;;;5049174;28;20133;-79
2021/10/20 07:22:49;;;;;;;6.65;3.67;;;;;;;;;;5059577;28;20068;-81
2021/10/20 07:25:17;;;;;;;6.70;4.30;;;;;;;;;;5041021;28;20025;-81
2021/10/20 07:27:44;;;;;;;9.15;4.65;;;;;;;;;;5057584;28;20496;-80
2021/10/20 07:30:10;;;;;;;6.47;4.40;;;;;;;;;;5057952;28;20062;-82
2021/10/20 07:32:39;;;;;;;6.05;4.03;;;;;;;;;;5059745;28;20397;-81
2021/10/20 07:35:05;;;;;;;7.93;3.40;;;;;;;;;;5057864;28;20033;-80
2021/10/20 07:37:31;;;;;;;7.47;3.88;;;;;;;;;;5065233;28;20072;-80
2021/10/20 07:39:57;;;;;;;6.50;3.53;;;;;;;;;;5056777;28;20414;-80
2021/10/20 07:42:23;;;;;;;10.10;3.10;;;;;;;;;;5058090;28;20555;-80
2021/10/20 07:44:49;;;;;;;4.93;3.05;;;;;;;;;;5057236;28;20028;-79
2021/10/20 07:47:16;;;;;;;5.10;2.72;;;;;;;;;;5059366;28;20044;-78
2021/10/20 07:49:42;;;;;;;6.07;3.13;;;;;;;;;;5059228;28;20036;-81
2021/10/20 07:52:07;;;;;;;5.53;2.80;;;;;;;;;;5058958;28;20037;-81
2021/10/20 07:54:33;;;;;;;4.85;3.30;;;;;;;;;;5058769;28;20402;-79
2021/10/20 07:56:59;;;;;;;6.60;3.00;;;;;;;;;;5059816;28;20029;-80
2021/10/20 07:59:25;;;;;;;5.00;2.95;;;;;;;;;;5041836;28;20048;-81
2021/10/20 08:01:52;;;;;;;5.47;2.90;;;;;;;;;;5054661;28;20028;-81
2021/10/20 08:04:18;;;;;;;4.55;2.83;;;;;;;;;;5054580;28;20021;-82
2021/10/20 08:06:44;;;;;;;5.82;3.88;;;;;;;;;;5056497;28;20032;-79
2021/10/20 08:09:10;;;;;;;4.78;2.78;;;;;;;;;;5054325;28;20032;-80
2021/10/20 08:11:36;;;;;;;6.93;2.95;;;;;;;;;;5052075;28;20025;-84
2021/10/20 08:14:03;;;;;;;4.57;2.80;;;;;;;;;;5052546;28;20059;-81
2021/10/20 08:16:30;;;;;;;5.38;2.42;;;;;;;;;;5030460;28;20025;-81
2021/10/20 08:18:56;;;;;;;7.97;2.45;;;;;;;;;;5031183;28;20495;-79
2021/10/20 08:21:22;;;;;;;3.25;2.63;;;;;;;;;;5044447;28;20012;-83
2021/10/20 08:23:48;;;;;;;4.32;2.55;;;;;;;;;;5065182;28;20047;-81
2021/10/20 08:26:15;;;;;;;3.10;2.20;;;;;;;;;;5035989;28;20067;-80
2021/10/20 08:28:42;;;;;;;3.63;2.45;;;;;;;;;;5051235;28;20021;-82
2021/10/20 08:31:08;;;;;;;4.65;2.28;;;;;;;;;;5052313;28;20033;-81
2021/10/20 08:33:34;;;;;;;3.92;2.00;;;;;;;;;;5052768;28;20071;-82
2021/10/20 08:36:00;;;;;;;5.65;2.33;;;;;;;;;;5051176;28;20036;-82
2021/10/20 08:38:26;;;;;;;4.30;2.22;;;;;;;;;;5052850;28;20029;-79
2021/10/20 08:40:52;;;;;;;3.63;2.38;;;;;;;;;;5053201;28;20029;-82
2021/10/20 08:43:19;;;;;;;5.30;2.10;;;;;;;;;;5053544;28;20032;-82
2021/10/20 08:45:45;;;;;;;7.38;2.10;;;;;;;;;;5052906;28;20040;-81
2021/10/20 08:48:13;;;;;;;3.40;2.33;;;;;;;;;;5052234;28;20021;-83
2021/10/20 08:50:39;;;;;;;4.15;2.28;;;;;;;;;;5034379;28;20043;-82
2021/10/20 08:53:06;;;;;;;5.28;2.35;;;;;;;;;;5053340;28;20109;-80
2021/10/20 08:55:32;;;;;;;2.92;2.17;;;;;;;;;;5035408;28;20033;-82
2021/10/20 08:58:00;;;;;;;4.45;2.20;;;;;;;;;;5050978;28;20514;-82
2021/10/20 09:00:26;;;;;;;5.30;2.38;;;;;;;;;;5034670;28;20056;-82
2021/10/20 09:02:52;;;;;;;4.43;2.45;;;;;;;;;;5050477;28;20028;-82
2021/10/20 09:05:20;;;;;;;3.83;2.65;;;;;;;;;;5049944;28;20052;-81
2021/10/20 09:07:47;;;;;;;3.00;1.85;;;;;;;;;;5051023;28;20017;-81
2021/10/20 09:10:13;;;;;;;5.38;3.00;;;;;;;;;;5049728;28;20029;-83
2021/10/20 09:12:42;;;;;;;5.78;3.65;;;;;;;;;;5052211;28;20049;-82
2021/10/20 09:15:10;;;;;;;4.50;2.58;;;;;;;;;;5037162;28;20115;-82
2021/10/20 09:17:45;;;;;;;7.95;2.97;;;;;;;;;;5055004;28;20060;-82
2021/10/20 09:20:29;;;;;;;5.93;2.80;;;;;;;;;;5054268;28;20029;-82
2021/10/20 09:23:00;;;;;;;4.57;2.20;;;;;;;;;;5057869;28;20025;-82
2021/10/20 09:25:27;;;;;;;3.38;2.45;;;;;;;;;;5058344;28;20017;-82
2021/10/20 09:27:54;;;;;;;4.25;2.17;;;;;;;;;;5038712;28;20036;-82
2021/10/20 09:30:20;;;;;;;6.57;2.45;;;;;;;;;;5040547;28;20041;-82
2021/10/20 09:32:49;;;;;;;7.85;2.33;;;;;;;;;;5057927;28;20120;-84
2021/10/20 09:35:15;;;;;;;6.22;2.63;;;;;;;;;;5057558;28;20040;-81
2021/10/20 09:37:41;;;;;;;3.28;2.28;;;;;;;;;;5057906;28;20029;-82
2021/10/20 09:40:09;;;;;;;4.65;2.47;;;;;;;;;;5040067;28;20078;-82
2021/10/20 09:42:48;;;;;;;3.10;2.25;;;;;;;;;;5057758;28;20039;-82
2021/10/20 09:45:15;;;;;;;4.93;2.20;;;;;;;;;;5059010;28;20036;-82
2021/10/20 09:47:41;;;;;;;3.30;2.38;;;;;;;;;;5059191;28;20027;-80
2021/10/20 09:50:08;;;;;;;3.40;2.00;;;;;;;;;;5057407;28;20071;-80
2021/10/20 09:52:51;;;;;;;5.38;1.90;;;;;;;;;;5042900;28;20033;-81
2021/10/20 09:55:27;;;;;;;5.40;2.28;;;;;;;;;;5059209;28;20397;-80
2021/10/20 09:58:03;;;;;;;4.22;2.25;;;;;;;;;;5061469;28;20033;-81
2021/10/20 10:00:30;;;;;;;6.30;1.88;;;;;;;;;;5057998;28;20063;-81
2021/10/20 10:02:57;;;;;;;5.95;1.90;;;;;;;;;;5059899;28;20021;-80
2021/10/20 10:05:23;;;;;;;6.40;2.03;;;;;;;;;;5059012;28;20013;-84
2021/10/20 10:07:49;;;;;;;3.25;2.00;;;;;;;;;;5055993;28;20035;-80
2021/10/20 10:10:16;;;;;;;7.40;1.98;;;;;;;;;;5058799;28;20448;-82
2021/10/20 10:12:42;;;;;;;6.60;2.13;;;;;;;;;;5039158;28;20037;-83
2021/10/20 10:15:10;;;;;;;4.57;1.73;;;;;;;;;;5041292;28;20021;-83
2021/10/20 10:17:40;;;;;;;3.70;2.10;;;;;;;;;;5042448;28;20048;-83
2021/10/20 10:20:07;;;;;;;4.38;1.98;;;;;;;;;;5063531;28;20025;-82
2021/10/20 10:22:34;;;;;;;3.88;2.15;;;;;;;;;;5064982;28;20028;-84
2021/10/20 10:25:07;;;;;;;3.55;1.85;;;;;;;;;;5059918;28;20370;-83
2021/10/20 10:27:35;;;;;;;3.47;2.05;;;;;;;;;;5059452;28;20052;-84
2021/10/20 10:30:05;;;;;;;3.85;2.10;;;;;;;;;;5057090;28;20033;-84
2021/10/20 10:32:35;;;;;;;6.85;2.20;;;;;;;;;;5055097;28;20040;-84
2021/10/20 10:35:06;;;;;;;4.75;2.17;;;;;;;;;;5056010;28;20053;-84
2021/10/20 10:37:33;;;;;;;3.08;1.92;;;;;;;;;;5052881;28;20025;-84
2021/10/20 10:40:09;;;;;;;6.07;2.13;;;;;;;;;;5054247;28;20044;-84
2021/10/20 10:42:36;;;;;;;5.90;1.80;;;;;;;;;;5055341;28;20413;-83
2021/10/20 10:45:12;;;;;;;4.80;1.90;;;;;;;;;;5054998;28;20021;-84
2021/10/20 10:47:57;;;;;;;2.45;1.75;;;;;;;;;;5056206;28;20025;-84
2021/10/20 10:50:38;;;;;;;3.72;1.70;;;;;;;;;;5054827;28;20021;-83
2021/10/20 10:53:04;;;;;;;3.60;1.60;;;;;;;;;;5054796;28;20021;-84
2021/10/20 10:55:30;;;;;;;5.97;1.92;;;;;;;;;;5047341;28;20107;-84
2021/10/20 10:58:15;;;;;;;3.45;1.80;;;;;;;;;;5055946;28;20018;-83
2021/10/20 11:00:49;;;;;;;6.95;1.75;;;;;;;;;;5043624;28;20028;-83
2021/10/20 11:03:16;;;;;;;4.68;1.50;;;;;;;;;;5058087;28;20021;-83
2021/10/20 11:05:53;;;;;;;5.60;1.30;;;;;;;;;;5070395;28;20099;-84
2021/10/20 11:08:19;;;;;;;2.75;1.60;;;;;;;;;;5063838;28;20056;-84
2021/10/20 11:10:47;;;;;;;2.95;1.13;;;;;;;;;;5054862;28;20056;-82
2021/10/20 11:13:13;;;;;;;5.45;1.95;;;;;;;;;;5055314;28;20029;-83
2021/10/20 11:15:40;;;;;;;2.33;1.33;;;;;;;;;;5049124;28;20382;-84
2021/10/20 11:18:06;;;;;;;2.33;1.30;;;;;;;;;;5057860;28;20520;-84
2021/10/20 11:20:34;;;;;;;3.20;1.33;;;;;;;;;;5046595;28;20057;-84
2021/10/20 11:23:07;;;;;;;4.65;1.35;;;;;;;;;;5058158;28;20049;-84
2021/10/20 11:25:34;;;;;;;3.15;1.10;;;;;;;;;;5053412;28;20027;-84
2021/10/20 11:28:01;;;;;;;3.22;1.58;;;;;;;;;;5066864;28;20540;-82
2021/10/20 11:30:28;;;;;;;4.05;1.50;;;;;;;;;;5081065;28;20115;-80
2021/10/20 11:32:57;;;;;;;2.80;1.55;;;;;;;;;;5085134;28;20151;-81
2021/10/20 11:35:28;;;;;;;8.68;1.50;;;;;;;;;;5068784;28;20017;-83
2021/10/20 11:37:59;;;;;;;2.33;1.30;;;;;;;;;;5076415;28;20031;-81
2021/10/20 11:40:28;;;;;;;2.28;1.35;;;;;;;;;;5095802;28;20020;-77
2021/10/20 11:42:54;;;;;;;3.35;1.52;;;;;;;;;;5084225;28;20025;-79
2021/10/20 11:45:21;;;;;;;1.60;1.20;;;;;;;;;;5058635;28;20025;-79
2021/10/20 11:47:47;;;;;;;2.40;1.48;;;;;;;;;;5060978;28;20033;-82
2021/10/20 11:50:18;;;;;;;4.22;1.30;;;;;;;;;;5054929;28;20057;-82
2021/10/20 11:52:56;;;;;;;3.95;1.38;;;;;;;;;;5054455;28;20025;-80
2021/10/20 11:55:22;;;;;;;1.85;1.38;;;;;;;;;;5053800;28;20024;-82
2021/10/20 11:57:48;;;;;;;2.38;1.15;;;;;;;;;;5054003;28;20497;-81
2021/10/20 12:00:14;;;;;;;2.60;1.27;;;;;;;;;;5053698;28;20448;-81
2021/10/20 12:02:40;;;;;;;3.45;1.30;;;;;;;;;;5037046;28;20029;-82
2021/10/20 12:05:06;;;;;;;2.90;1.35;;;;;;;;;;5052246;28;20071;-82
2021/10/20 12:07:32;;;;;;;6.40;1.58;;;;;;;;;;5055828;28;20080;-83
2021/10/20 12:10:00;;;;;;;8.55;1.45;;;;;;;;;;5054374;28;20033;-80
2021/10/20 12:12:26;;;;;;;3.78;1.15;;;;;;;;;;5055193;28;20458;-82
2021/10/20 12:14:56;;;;;;;2.67;1.40;;;;;;;;;;5053126;28;20082;-84
2021/10/20 12:17:22;;;;;;;3.03;1.50;;;;;;;;;;5046013;28;20028;-82
2021/10/20 12:19:48;;;;;;;4.90;1.50;;;;;;;;;;5051094;28;20035;-79
2021/10/20 12:22:15;;;;;;;2.05;1.45;;;;;;;;;;5034553;28;20124;-81
2021/10/20 12:24:48;;;;;;;2.10;1.40;;;;;;;;;;5032293;28;20017;-79
2021/10/20 12:27:14;;;;;;;;;;;;;;;;;;5045723;28;20020;-81
2021/10/20 12:29:41;;;;;;;3.55;1.35;;;;;;;;;;5055411;28;19915;-78
2021/10/20 12:32:08;;;;;;;1.77;1.35;;;;;;;;;;5055817;28;20032;-80
2021/10/20 12:34:34;;;;;;;2.17;1.67;;;;;;;;;;5057488;28;20029;-79
2021/10/20 12:37:00;;;;;;;2.80;1.38;;;;;;;;;;5057330;28;20025;-83
2021/10/20 12:39:27;;;;;;;2.33;1.40;;;;;;;;;;5060482;28;20033;-83
2021/10/20 12:41:53;;;;;;;4.03;1.88;;;;;;;;;;5053155;28;20083;-82
2021/10/20 12:44:20;;;;;;;3.58;1.40;;;;;;;;;;5052603;28;20461;-82
2021/10/20 12:46:49;;;;;;;3.28;1.70;;;;;;;;;;5054024;28;20124;-82
2021/10/20 12:49:15;;;;;;;5.22;1.63;;;;;;;;;;5051225;28;20025;-77
2021/10/20 12:51:42;;;;;;;3.78;1.45;;;;;;;;;;5050568;28;20112;-77
2021/10/20 12:54:09;;;;;;;4.15;1.40;;;;;;;;;;5054351;28;20025;-82
2021/10/20 12:56:36;;;;;;;2.67;1.40;;;;;;;;;;5055525;28;20043;-80
2021/10/20 12:59:20;;;;;;;2.95;1.30;;;;;;;;;;5057890;28;20052;-80
2021/10/20 13:01:46;;;;;;;3.17;1.55;;;;;;;;;;5057285;28;20017;-80
2021/10/20 13:04:14;;;;;;;2.45;1.23;;;;;;;;;;5058315;28;20035;-80
2021/10/20 13:06:40;;;;;;;4.32;1.30;;;;;;;;;;5056685;28;20048;-82
2021/10/20 13:09:07;;;;;;;2.83;1.50;;;;;;;;;;5057870;28;20500;-83
2021/10/20 13:11:33;;;;;;;2.30;1.35;;;;;;;;;;5058406;28;20021;-84
2021/10/20 13:14:00;;;;;;;2.35;1.23;;;;;;;;;;5060404;28;20100;-81
2021/10/20 13:16:26;;;;;;;3.80;1.58;;;;;;;;;;5058927;28;20029;-80
2021/10/20 13:18:52;;;;;;;2.85;1.52;;;;;;;;;;5059621;28;20028;-81
2021/10/20 13:21:18;;;;;;;2.83;1.20;;;;;;;;;;5056487;28;20124;-79
2021/10/20 13:23:45;;;;;;;2.65;1.70;;;;;;;;;;5041056;28;20061;-80
2021/10/20 13:26:11;;;;;;;2.70;1.50;;;;;;;;;;5059389;28;20646;-81
2021/10/20 13:28:37;;;;;;;5.50;1.50;;;;;;;;;;5041046;28;20021;-79
2021/10/20 13:31:03;;;;;;;3.90;1.73;;;;;;;;;;5057790;28;20113;-79
2021/10/20 13:33:29;;;;;;;3.90;1.50;;;;;;;;;;5058531;28;20024;-79
2021/10/20 13:35:55;;;;;;;4.35;1.63;;;;;;;;;;5058487;28;20079;-80
2021/10/20 13:38:23;;;;;;;4.95;1.50;;;;;;;;;;5058702;28;20036;-82
2021/10/20 13:40:50;;;;;;;3.83;1.52;;;;;;;;;;5038990;28;20029;-82
2021/10/20 13:43:16;;;;;;;3.38;1.38;;;;;;;;;;5052485;28;20474;-81
2021/10/20 13:45:42;;;;;;;1.92;1.58;;;;;;;;;;5059499;28;20032;-83
2021/10/20 13:48:09;;;;;;;3.72;1.50;;;;;;;;;;5058803;28;20166;-81
2021/10/20 13:50:35;;;;;;;6.70;1.65;;;;;;;;;;5057857;28;20016;-83
2021/10/20 13:53:02;;;;;;;1.80;1.30;;;;;;;;;;5057099;28;20021;-82
2021/10/20 13:55:29;;;;;;;3.67;1.50;;;;;;;;;;5058993;28;20029;-82
2021/10/20 13:57:59;;;;;;;2.80;1.30;;;;;;;;;;5057735;28;20386;-81
2021/10/20 14:00:25;;;;;;;3.25;1.70;;;;;;;;;;5056375;28;20089;-81
2021/10/20 14:02:52;;;;;;;4.90;1.35;;;;;;;;;;5038400;28;20034;-82
2021/10/20 14:05:18;;;;;;;3.72;1.63;;;;;;;;;;5038330;28;20501;-81
2021/10/20 14:07:44;;;;;;;3.50;1.50;;;;;;;;;;5039628;28;20049;-82
2021/10/20 14:10:10;;;;;;;7.28;1.60;;;;;;;;;;5039284;28;20021;-81
2021/10/20 14:12:39;;;;;;;4.78;1.58;;;;;;;;;;5057570;28;20555;-81
2021/10/20 14:15:06;;;;;;;2.60;1.60;;;;;;;;;;5057057;28;20064;-82
2021/10/20 14:17:33;;;;;;;3.50;1.33;;;;;;;;;;5048591;28;20035;-81
2021/10/20 14:20:02;;;;;;;3.30;1.40;;;;;;;;;;5057573;28;20025;-81
2021/10/20 14:22:28;;;;;;;2.15;1.45;;;;;;;;;;5058439;28;20024;-81
2021/10/20 14:24:54;;;;;;;5.30;1.63;;;;;;;;;;5059121;28;20025;-82
2021/10/20 14:27:20;;;;;;;4.10;1.60;;;;;;;;;;5058238;28;20021;-84
2021/10/20 14:29:46;;;;;;;7.43;2.00;;;;;;;;;;5060459;28;20060;-83
2021/10/20 14:32:13;;;;;;;5.45;1.55;;;;;;;;;;5039510;28;20080;-83
2021/10/20 14:34:39;;;;;;;3.58;1.83;;;;;;;;;;5038972;28;20401;-83
2021/10/20 14:37:05;;;;;;;2.05;1.40;;;;;;;;;;5038324;28;20413;-82
2021/10/20 14:39:31;;;;;;;2.45;1.50;;;;;;;;;;5038079;28;20034;-83
2021/10/20 14:41:58;;;;;;;2.85;1.40;;;;;;;;;;5058671;28;20063;-83